Time;durP1;ratioP1;P1;durP2;ratioP2;P2;SDS_P1;SDS_P2;PMS_P1;PMS_P2;Temp;Humidity;BMP_temperature;BMP_pressure;BME280_temperature;BME280_humidity;BME280_pressure;Samples;Min_cycle;Max_cycle;Signal;HPM_P1;HPM_P2
2021/09/30 00:00:18;;;;;;;0.85;0.82;;;18.90;99.90;;;;;;5014856;28;20108;-77
2021/09/30 00:02:44;;;;;;;0.85;0.80;;;19.00;99.90;;;;;;5014692;28;20054;-76
2021/09/30 00:05:11;;;;;;;0.63;0.55;;;19.00;99.90;;;;;;5014690;28;20026;-77
2021/09/30 00:07:37;;;;;;;3.03;0.90;;;19.00;99.90;;;;;;5013818;28;20034;-76
2021/09/30 00:10:06;;;;;;;1.08;0.50;;;19.00;99.90;;;;;;5014601;28;20052;-76
2021/09/30 00:12:36;;;;;;;0.80;0.80;;;19.10;99.90;;;;;;5014436;28;20512;-76
2021/09/30 00:15:06;;;;;;;1.13;0.75;;;19.10;99.90;;;;;;5013839;28;20045;-75
2021/09/30 00:33:53;;;;;;;3.83;1.00;;;19.00;99.90;;;;;;5014225;28;20064;-76
2021/09/30 00:41:57;;;;;;;0.43;0.43;;;19.00;99.90;;;;;;5014135;28;19959;-76
2021/09/30 00:54:51;;;;;;;0.65;0.60;;;19.10;99.90;;;;;;5013837;28;20124;-77
2021/09/30 02:58:47;;;;;;;2.50;0.60;;;19.30;99.90;;;;;;5015814;28;20076;-76
2021/09/30 03:01:18;;;;;;;0.57;0.57;;;19.20;99.90;;;;;;5015836;28;20038;-76
2021/09/30 03:03:45;;;;;;;4.70;0.60;;;19.20;99.90;;;;;;5015913;28;20034;-76
2021/09/30 03:06:11;;;;;;;2.50;0.63;;;19.10;99.90;;;;;;5015755;28;20113;-76
2021/09/30 03:08:46;;;;;;;0.40;0.40;;;19.00;99.90;;;;;;4998170;28;20132;-79
2021/09/30 03:11:12;;;;;;;1.17;0.75;;;18.90;99.90;;;;;;5015824;28;20034;-76
2021/09/30 03:13:39;;;;;;;1.20;0.70;;;18.80;99.90;;;;;;5015644;28;20485;-77
2021/09/30 03:16:38;;;;;;;0.63;0.63;;;18.70;99.90;;;;;;4998526;28;20037;-78
2021/09/30 03:18:59;;;;;;;2.30;0.97;;;18.70;99.90;;;;;;5015026;28;20050;-81
2021/09/30 03:24:12;;;;;;;3.30;0.70;;;18.60;99.90;;;;;;5015616;28;20483;-76
2021/09/30 03:26:39;;;;;;;0.70;0.70;;;18.60;99.90;;;;;;5015628;28;20065;-77
2021/09/30 03:29:06;;;;;;;0.77;0.77;;;18.50;99.90;;;;;;5015384;28;20038;-76
2021/09/30 03:31:32;;;;;;;1.17;0.70;;;18.50;99.90;;;;;;5015138;28;20543;-77
2021/09/30 03:33:59;;;;;;;2.25;0.98;;;18.50;99.90;;;;;;5015252;28;20034;-78
2021/09/30 03:36:25;;;;;;;1.30;1.20;;;18.50;99.90;;;;;;5015349;28;20029;-77
2021/09/30 03:38:51;;;;;;;3.20;0.88;;;18.60;99.90;;;;;;5015597;28;20049;-78
2021/09/30 03:41:17;;;;;;;6.53;0.88;;;18.60;99.90;;;;;;5014632;28;20037;-78
2021/09/30 03:43:43;;;;;;;2.33;1.45;;;18.60;99.90;;;;;;5014554;28;20042;-78
2021/09/30 03:46:10;;;;;;;0.68;0.60;;;18.60;99.90;;;;;;5016384;28;20120;-77
2021/09/30 03:48:35;;;;;;;0.63;0.60;;;18.60;99.90;;;;;;5015332;28;20041;-76
2021/09/30 03:56:32;;;;;;;0.77;0.70;;;18.80;99.90;;;;;;5014932;28;20057;-77
2021/09/30 03:59:18;;;;;;;4.22;0.75;;;18.80;99.90;;;;;;5014253;28;20409;-78
2021/09/30 04:01:47;;;;;;;1.23;0.68;;;18.80;99.90;;;;;;5014895;28;20037;-78
2021/09/30 04:04:13;;;;;;;1.40;0.70;;;18.80;99.90;;;;;;5014616;28;20042;-77
2021/09/30 04:06:40;;;;;;;0.68;0.68;;;18.80;99.90;;;;;;5014680;28;20028;-78
2021/09/30 04:09:05;;;;;;;5.00;1.00;;;18.80;99.90;;;;;;5014751;28;20165;-78
2021/09/30 04:11:31;;;;;;;0.73;0.68;;;18.90;99.90;;;;;;4996805;28;20050;-78
2021/09/30 04:13:57;;;;;;;1.10;0.73;;;18.90;99.90;;;;;;5014498;28;20030;-79
2021/09/30 04:16:26;;;;;;;1.50;1.00;;;19.00;99.90;;;;;;5014391;28;20065;-78
2021/09/30 04:18:52;;;;;;;1.80;0.60;;;19.00;99.90;;;;;;5014339;28;20492;-77
2021/09/30 04:21:18;;;;;;;0.93;0.65;;;19.00;99.90;;;;;;5014360;28;20096;-77
2021/09/30 04:23:43;;;;;;;1.02;0.70;;;19.10;99.90;;;;;;5014095;28;20038;-76
2021/09/30 04:26:09;;;;;;;0.60;0.60;;;19.10;99.90;;;;;;5014345;28;20030;-76
2021/09/30 04:28:35;;;;;;;1.83;0.80;;;19.20;99.90;;;;;;5014272;28;20049;-77
2021/09/30 04:31:02;;;;;;;1.25;0.80;;;19.30;99.90;;;;;;5014391;28;20030;-76
2021/09/30 04:33:27;;;;;;;3.00;0.73;;;19.30;99.90;;;;;;5013941;28;20041;-76
2021/09/30 04:35:53;;;;;;;1.35;0.70;;;19.30;99.90;;;;;;5014368;28;20388;-77
2021/09/30 04:38:18;;;;;;;0.93;0.60;;;19.30;99.90;;;;;;5014254;28;20493;-75
2021/09/30 04:40:44;;;;;;;0.70;0.70;;;19.20;99.90;;;;;;5014304;28;20037;-76
2021/09/30 04:43:10;;;;;;;1.23;0.88;;;19.20;99.90;;;;;;5013204;28;20042;-76
2021/09/30 04:45:35;;;;;;;1.15;0.70;;;19.10;99.90;;;;;;5013939;28;20089;-77
2021/09/30 04:48:01;;;;;;;1.65;0.85;;;19.00;99.90;;;;;;5013997;28;20157;-76
2021/09/30 04:50:27;;;;;;;0.98;0.73;;;18.90;99.90;;;;;;5013985;28;20092;-76
2021/09/30 04:52:57;;;;;;;1.58;0.80;;;18.90;99.90;;;;;;5013518;28;20477;-75
2021/09/30 04:55:23;;;;;;;2.15;0.90;;;18.80;99.90;;;;;;5013758;28;20431;-77
2021/09/30 04:57:49;;;;;;;1.38;0.80;;;18.80;99.90;;;;;;5013726;28;20049;-76
2021/09/30 05:00:15;;;;;;;2.55;1.38;;;18.80;99.90;;;;;;5014018;28;20084;-76
2021/09/30 05:02:42;;;;;;;3.50;0.73;;;18.90;99.90;;;;;;5013822;28;20396;-75
2021/09/30 05:05:08;;;;;;;1.20;0.80;;;18.90;99.90;;;;;;5013874;28;20377;-77
2021/09/30 05:07:34;;;;;;;3.10;0.82;;;18.90;99.90;;;;;;5013301;28;20046;-76
2021/09/30 05:10:03;;;;;;;1.55;0.80;;;18.90;99.90;;;;;;5013437;28;20516;-76
2021/09/30 05:12:30;;;;;;;3.85;1.02;;;18.90;99.90;;;;;;5013901;28;20440;-79
2021/09/30 05:14:56;;;;;;;1.15;0.80;;;18.90;99.90;;;;;;4995779;28;20033;-76
2021/09/30 05:17:21;;;;;;;3.50;0.70;;;18.90;99.90;;;;;;5013373;28;20037;-77
2021/09/30 05:19:47;;;;;;;1.58;0.80;;;18.80;99.90;;;;;;5013540;28;20096;-76
2021/09/30 05:22:13;;;;;;;1.33;0.60;;;18.80;99.90;;;;;;5013449;28;20384;-76
2021/09/30 05:24:38;;;;;;;1.00;0.80;;;18.90;99.90;;;;;;5013558;28;20041;-75
2021/09/30 05:27:05;;;;;;;5.35;0.90;;;18.90;99.90;;;;;;5013423;28;20057;-81
2021/09/30 05:29:30;;;;;;;2.35;0.90;;;18.90;99.90;;;;;;5013154;28;20038;-80
2021/09/30 05:31:56;;;;;;;2.10;0.90;;;18.90;99.90;;;;;;5013311;28;20030;-79
2021/09/30 05:34:22;;;;;;;1.50;0.70;;;19.00;99.90;;;;;;4995767;28;20033;-80
2021/09/30 05:36:47;;;;;;;1.58;0.82;;;19.20;99.90;;;;;;5013124;28;20365;-80
2021/09/30 05:39:13;;;;;;;0.95;0.70;;;19.60;99.90;;;;;;5013124;28;20459;-81
2021/09/30 05:41:39;;;;;;;1.85;0.90;;;20.10;99.90;;;;;;5012545;28;20026;-79
2021/09/30 05:44:08;;;;;;;3.67;0.90;;;20.50;99.90;;;;;;5012484;28;20050;-80
2021/09/30 05:46:43;;;;;;;8.00;0.93;;;20.70;99.90;;;;;;5011997;28;20066;-80
2021/09/30 05:49:10;;;;;;;1.70;0.65;;;20.90;99.90;;;;;;5012222;28;20038;-81
2021/09/30 05:51:37;;;;;;;1.90;0.82;;;21.20;99.90;;;;;;4994177;28;20396;-82
2021/09/30 05:54:03;;;;;;;2.30;0.73;;;21.40;99.90;;;;;;4994834;28;20113;-80
2021/09/30 05:56:28;;;;;;;3.13;0.52;;;21.70;99.90;;;;;;5012226;28;20552;-81
2021/09/30 05:58:55;;;;;;;3.53;0.77;;;21.90;99.90;;;;;;5012364;28;20497;-80
2021/09/30 06:10:11;;;;;;;0.75;0.63;;;22.50;99.90;;;;;;4985822;28;20373;-82
2021/09/30 06:12:36;;;;;;;2.15;0.80;;;22.60;99.90;;;;;;5015972;28;20034;-80
2021/09/30 06:15:06;;;;;;;1.73;0.60;;;22.60;99.90;;;;;;5015984;28;20030;-80
2021/09/30 06:17:32;;;;;;;1.60;0.57;;;22.80;99.90;;;;;;5016014;28;20018;-81
2021/09/30 06:19:58;;;;;;;1.23;0.68;;;23.20;99.90;;;;;;5017789;28;20033;-80
2021/09/30 06:22:23;;;;;;;2.28;0.82;;;23.20;99.90;;;;;;5015673;28;20065;-80
2021/09/30 06:24:49;;;;;;;3.30;0.93;;;23.40;99.90;;;;;;5015776;28;20129;-79
2021/09/30 06:27:14;;;;;;;1.05;0.70;;;23.60;99.90;;;;;;4998224;28;20038;-79
2021/09/30 06:29:40;;;;;;;2.33;0.63;;;23.50;99.90;;;;;;5015901;28;20468;-81
2021/09/30 06:32:06;;;;;;;1.17;0.80;;;23.80;99.90;;;;;;5015865;28;20058;-81
2021/09/30 06:34:31;;;;;;;1.35;0.88;;;23.80;99.90;;;;;;4998028;28;20132;-81
2021/09/30 06:36:57;;;;;;;3.00;0.85;;;23.80;99.90;;;;;;5015644;28;20091;-81
2021/09/30 06:39:23;;;;;;;1.83;0.57;;;23.90;99.90;;;;;;5016094;28;20473;-81
2021/09/30 06:41:48;;;;;;;2.13;0.80;;;23.90;99.90;;;;;;5016309;28;20484;-81
2021/09/30 06:44:14;;;;;;;1.88;1.05;;;24.10;99.90;;;;;;5016055;28;20400;-80
2021/09/30 06:46:40;;;;;;;1.10;0.80;;;24.20;99.90;;;;;;5016167;28;20503;-81
2021/09/30 06:49:05;;;;;;;1.25;0.60;;;24.20;99.90;;;;;;5016291;28;20109;-81
2021/09/30 06:51:33;;;;;;;1.83;0.68;;;24.60;99.90;;;;;;5016132;28;20081;-81
2021/09/30 06:53:58;;;;;;;1.10;0.90;;;24.80;99.90;;;;;;4998254;28;20034;-80
2021/09/30 06:56:26;;;;;;;3.67;0.68;;;24.90;99.90;;;;;;5016007;28;20045;-81
2021/09/30 06:58:53;;;;;;;2.63;0.80;;;25.00;99.90;;;;;;5015932;28;20057;-81
2021/09/30 07:01:21;;;;;;;12.82;0.70;;;25.30;99.90;;;;;;4998372;28;20389;-81
2021/09/30 07:03:49;;;;;;;4.60;0.75;;;25.50;99.90;;;;;;5016105;28;20054;-81
2021/09/30 07:06:15;;;;;;;7.88;0.75;;;25.90;99.90;;;;;;5015734;28;20137;-81
2021/09/30 07:08:42;;;;;;;1.50;0.73;;;26.20;99.90;;;;;;5015647;28;20104;-81
2021/09/30 07:11:08;;;;;;;3.42;0.70;;;25.80;99.90;;;;;;5015709;28;20029;-82
2021/09/30 07:13:34;;;;;;;1.23;0.60;;;25.70;99.90;;;;;;4998289;28;20034;-81
2021/09/30 07:15:59;;;;;;;4.40;1.08;;;25.60;99.90;;;;;;5015018;28;20030;-81
2021/09/30 07:18:25;;;;;;;7.93;0.70;;;25.60;99.90;;;;;;5014501;28;20034;-81
2021/09/30 07:20:57;;;;;;;4.25;0.80;;;25.70;99.90;;;;;;5015403;28;20065;-81
2021/09/30 07:23:23;;;;;;;1.27;0.70;;;25.90;99.90;;;;;;5015641;28;20041;-80
2021/09/30 07:25:49;;;;;;;1.08;0.70;;;26.10;99.90;;;;;;5015340;28;20034;-80
2021/09/30 07:28:15;;;;;;;1.48;0.77;;;25.90;99.90;;;;;;4997801;28;20347;-81
2021/09/30 07:30:41;;;;;;;0.70;0.70;;;26.10;99.90;;;;;;5015343;28;20033;-81
2021/09/30 07:33:08;;;;;;;7.10;0.75;;;26.70;99.90;;;;;;5015334;28;20472;-81
2021/09/30 07:35:35;;;;;;;3.88;1.05;;;26.80;99.90;;;;;;5015210;28;20056;-81
2021/09/30 07:38:01;;;;;;;1.33;0.68;;;27.10;99.90;;;;;;5015476;28;20412;-80
2021/09/30 07:40:27;;;;;;;0.60;0.50;;;27.20;99.90;;;;;;5015220;28;20049;-81
2021/09/30 07:42:53;;;;;;;1.48;0.93;;;27.10;99.90;;;;;;5015101;28;20041;-82
2021/09/30 07:45:20;;;;;;;1.08;0.75;;;27.40;99.90;;;;;;5014960;28;20120;-81
2021/09/30 07:47:46;;;;;;;2.55;1.00;;;27.00;99.90;;;;;;5015130;28;20424;-80
2021/09/30 07:50:12;;;;;;;0.80;0.65;;;26.40;99.90;;;;;;5014935;28;20069;-80
2021/09/30 07:52:37;;;;;;;6.15;1.00;;;26.40;99.90;;;;;;5014908;28;20109;-81
2021/09/30 07:55:04;;;;;;;5.07;0.70;;;26.60;99.90;;;;;;5014937;28;20040;-82
2021/09/30 07:57:30;;;;;;;2.65;0.73;;;26.50;99.90;;;;;;5015219;28;20061;-81
2021/09/30 07:59:57;;;;;;;2.30;0.70;;;26.40;99.90;;;;;;5015068;28;20080;-81
2021/09/30 08:02:22;;;;;;;5.25;1.00;;;26.70;99.90;;;;;;5014901;28;20042;-82
2021/09/30 08:04:48;;;;;;;1.17;0.77;;;27.20;99.90;;;;;;5014382;28;20041;-82
2021/09/30 08:07:14;;;;;;;1.65;0.77;;;27.00;99.90;;;;;;5015209;28;20069;-82
2021/09/30 08:09:40;;;;;;;6.50;0.98;;;27.20;99.90;;;;;;5015030;28;20068;-83
2021/09/30 08:12:06;;;;;;;4.85;0.70;;;27.10;99.90;;;;;;5014752;28;20103;-82
2021/09/30 08:14:33;;;;;;;6.50;0.77;;;26.70;99.90;;;;;;5014680;28;20026;-80
2021/09/30 08:16:58;;;;;;;2.45;0.95;;;26.00;99.90;;;;;;5014346;28;20496;-81
2021/09/30 08:19:24;;;;;;;2.97;0.60;;;25.80;99.90;;;;;;5014612;28;20038;-82
2021/09/30 08:21:50;;;;;;;2.35;0.80;;;26.00;99.90;;;;;;4996803;28;20032;-82
2021/09/30 08:24:18;;;;;;;3.13;0.85;;;25.70;99.90;;;;;;5014274;28;20547;-82
2021/09/30 08:26:45;;;;;;;1.63;0.68;;;25.30;99.90;;;;;;5014354;28;20038;-81
2021/09/30 08:29:11;;;;;;;5.35;1.30;;;24.90;99.90;;;;;;5013458;28;20034;-80
2021/09/30 08:31:37;;;;;;;1.60;0.90;;;24.50;99.90;;;;;;5014095;28;20038;-81
2021/09/30 08:34:03;;;;;;;9.50;0.82;;;24.30;99.90;;;;;;5014428;28;20084;-81
2021/09/30 08:36:31;;;;;;;1.42;0.98;;;24.60;99.90;;;;;;5014295;28;20531;-80
2021/09/30 08:38:57;;;;;;;1.20;0.70;;;24.60;99.90;;;;;;5014184;28;20055;-80
2021/09/30 08:41:23;;;;;;;2.72;0.75;;;25.10;99.90;;;;;;5014380;28;20461;-80
2021/09/30 08:43:49;;;;;;;5.50;1.23;;;25.20;99.90;;;;;;4996378;28;20050;-81
2021/09/30 08:46:16;;;;;;;5.30;0.80;;;25.20;99.90;;;;;;5013379;28;20052;-80
2021/09/30 08:48:43;;;;;;;4.82;0.70;;;25.00;99.90;;;;;;5014101;28;20037;-80
2021/09/30 08:51:11;;;;;;;1.98;0.88;;;25.10;99.90;;;;;;5014015;28;20026;-81
2021/09/30 08:53:36;;;;;;;3.83;0.93;;;24.90;99.90;;;;;;5015236;28;20034;-81
2021/09/30 08:56:07;;;;;;;1.15;0.68;;;24.70;99.90;;;;;;5013924;28;20034;-81
2021/09/30 08:58:34;;;;;;;2.40;1.00;;;24.50;99.90;;;;;;4996488;28;20034;-82
2021/09/30 09:01:00;;;;;;;3.35;0.70;;;24.80;99.90;;;;;;5013541;28;20034;-82
2021/09/30 09:03:39;;;;;;;3.25;1.33;;;25.00;99.90;;;;;;5013753;28;20075;-80
2021/09/30 09:06:08;;;;;;;1.00;0.65;;;25.10;99.90;;;;;;5013698;28;20484;-80
2021/09/30 09:08:34;;;;;;;2.60;0.55;;;25.20;99.90;;;;;;5013848;28;20038;-80
2021/09/30 09:11:02;;;;;;;1.52;0.80;;;24.90;99.90;;;;;;5013535;28;20065;-82
2021/09/30 09:13:28;;;;;;;0.73;0.50;;;25.10;99.90;;;;;;5012711;28;20045;-82
2021/09/30 09:15:59;;;;;;;0.73;0.60;;;25.10;99.90;;;;;;5012646;28;20488;-80
2021/09/30 09:18:31;;;;;;;0.93;0.80;;;24.90;99.90;;;;;;5012775;28;20045;-81
2021/09/30 09:21:20;;;;;;;2.60;0.90;;;24.90;99.90;;;;;;5012617;28;20026;-80
2021/09/30 09:23:52;;;;;;;1.63;0.80;;;24.90;99.90;;;;;;5012332;28;20045;-83
2021/09/30 09:26:33;;;;;;;16.05;0.98;;;24.70;99.90;;;;;;5012593;28;20041;-79
2021/09/30 09:29:13;;;;;;;10.90;0.98;;;24.20;99.90;;;;;;4994868;28;20042;-80
2021/09/30 09:31:50;;;;;;;7.35;0.70;;;23.80;99.90;;;;;;5012408;28;20026;-82
2021/09/30 09:34:26;;;;;;;3.63;0.77;;;24.00;99.90;;;;;;4994961;28;20124;-82
2021/09/30 09:36:54;;;;;;;3.67;1.00;;;24.30;99.90;;;;;;5012341;28;20392;-82
2021/09/30 09:39:34;;;;;;;2.58;0.70;;;24.10;99.90;;;;;;5011893;28;20050;-81
2021/09/30 09:42:14;;;;;;;2.75;0.90;;;24.10;99.90;;;;;;5012405;28;20419;-82
2021/09/30 09:44:58;;;;;;;1.08;0.93;;;23.90;99.90;;;;;;5012151;28;20117;-81
2021/09/30 09:47:24;;;;;;;1.35;0.80;;;24.00;99.90;;;;;;5012235;28;20046;-82
2021/09/30 09:50:12;;;;;;;1.75;0.73;;;24.00;99.90;;;;;;5012306;28;20472;-82
2021/09/30 09:53:02;;;;;;;6.55;1.40;;;24.00;99.90;;;;;;5012053;28;20141;-81
2021/09/30 09:55:35;;;;;;;1.17;0.68;;;23.80;99.90;;;;;;5002995;28;20038;-81
2021/09/30 09:58:08;;;;;;;0.73;0.70;;;23.70;99.90;;;;;;5012178;28;20038;-83
2021/09/30 10:00:52;;;;;;;11.63;1.40;;;23.30;99.90;;;;;;5012290;28;20473;-81
2021/09/30 10:03:25;;;;;;;3.80;0.82;;;23.40;99.90;;;;;;5012024;28;20041;-83
2021/09/30 10:05:51;;;;;;;9.45;0.95;;;23.30;99.90;;;;;;5013218;28;20048;-81
2021/09/30 10:08:17;;;;;;;3.47;1.13;;;23.30;99.90;;;;;;5011945;28;20500;-81
2021/09/30 10:10:46;;;;;;;1.67;0.82;;;23.10;99.90;;;;;;5012174;28;20022;-83
2021/09/30 10:13:12;;;;;;;3.35;0.95;;;23.00;99.90;;;;;;5012006;28;20053;-82
2021/09/30 10:15:40;;;;;;;8.23;1.25;;;23.20;99.90;;;;;;5012068;28;20061;-81
2021/09/30 10:18:07;;;;;;;2.55;0.95;;;23.30;99.90;;;;;;5012035;28;20568;-82
2021/09/30 10:20:34;;;;;;;6.07;1.00;;;23.50;99.90;;;;;;5011781;28;20022;-83
2021/09/30 10:23:02;;;;;;;1.55;0.82;;;23.60;99.90;;;;;;4994107;28;20042;-81
2021/09/30 10:25:43;;;;;;;2.28;0.70;;;23.60;99.90;;;;;;5012007;28;20100;-81
2021/09/30 10:28:12;;;;;;;4.05;1.70;;;23.10;99.90;;;;;;4994292;28;20040;-81
2021/09/30 10:30:47;;;;;;;4.75;1.00;;;23.00;99.90;;;;;;5011842;28;20081;-82
2021/09/30 10:33:18;;;;;;;1.83;0.68;;;23.00;99.90;;;;;;5012834;28;20030;-80
2021/09/30 10:35:45;;;;;;;;;;;23.00;99.90;;;;;;5013365;28;20385;-80
2021/09/30 10:38:23;;;;;;;13.75;1.50;;;22.80;99.90;;;;;;5012631;28;19905;-80
2021/09/30 10:41:00;;;;;;;1.23;0.80;;;22.70;99.90;;;;;;5012655;28;20058;-83
2021/09/30 10:43:36;;;;;;;4.10;0.90;;;22.70;99.90;;;;;;4995208;28;20037;-84
2021/09/30 10:46:02;;;;;;;1.23;0.93;;;22.90;99.90;;;;;;5012694;28;20120;-83
2021/09/30 10:48:30;;;;;;;2.47;1.05;;;23.10;99.90;;;;;;4994954;28;20445;-82
2021/09/30 10:51:05;;;;;;;0.85;0.80;;;23.30;99.90;;;;;;5013062;28;20033;-84
2021/09/30 10:53:46;;;;;;;1.13;1.00;;;23.30;99.90;;;;;;5015216;28;20061;-82
2021/09/30 10:56:41;;;;;;;2.30;0.73;;;23.40;99.90;;;;;;5015242;28;20037;-82
2021/09/30 10:59:07;;;;;;;2.13;0.90;;;23.30;99.90;;;;;;5008121;28;20033;-83
2021/09/30 11:01:54;;;;;;;2.78;1.27;;;23.30;99.90;;;;;;5015073;28;20128;-82
2021/09/30 11:04:21;;;;;;;3.95;0.73;;;23.40;99.90;;;;;;5014912;28;20050;-81
2021/09/30 11:07:05;;;;;;;2.22;0.68;;;23.20;99.90;;;;;;5015907;28;20101;-82
2021/09/30 11:09:32;;;;;;;1.75;0.82;;;23.10;99.90;;;;;;5015670;28;20037;-82
2021/09/30 11:12:13;;;;;;;2.83;1.05;;;23.10;99.90;;;;;;4997766;28;20034;-83
2021/09/30 11:14:52;;;;;;;4.38;1.30;;;23.10;99.90;;;;;;5015245;28;20084;-81
2021/09/30 11:17:36;;;;;;;6.18;0.88;;;23.10;99.90;;;;;;5015300;28;20033;-83
2021/09/30 11:20:34;;;;;;;2.50;1.05;;;23.10;99.90;;;;;;5016021;28;20053;-80
2021/09/30 11:23:00;;;;;;;7.25;1.00;;;23.20;99.90;;;;;;5015137;28;20060;-79
2021/09/30 11:26:04;;;;;;;0.98;0.80;;;23.10;99.90;;;;;;5015425;28;20105;-80
2021/09/30 11:28:30;;;;;;;6.57;0.80;;;23.10;99.90;;;;;;5012855;28;20034;-80
2021/09/30 11:31:25;;;;;;;0.73;0.70;;;23.10;99.90;;;;;;5014635;28;20499;-82
2021/09/30 11:33:52;;;;;;;1.98;0.90;;;23.00;99.90;;;;;;4998299;28;20057;-82
2021/09/30 11:36:19;;;;;;;2.35;0.73;;;23.10;99.90;;;;;;5015554;28;20496;-88
2021/09/30 11:38:46;;;;;;;1.95;0.75;;;23.10;99.90;;;;;;4997622;28;20045;-87
2021/09/30 11:41:13;;;;;;;0.98;0.85;;;23.00;99.90;;;;;;5015186;28;20026;-84
2021/09/30 11:43:39;;;;;;;2.10;0.90;;;23.00;99.90;;;;;;5014743;28;20064;-86
2021/09/30 11:49:40;;;;;;;2.00;1.02;;;23.00;99.90;;;;;;5015761;28;20029;-80
2021/09/30 11:52:12;;;;;;;5.15;0.68;;;22.90;99.90;;;;;;5014942;28;20029;-82
2021/09/30 11:54:37;;;;;;;;;;;22.80;99.90;;;;;;4997836;28;20561;-84
2021/09/30 11:57:04;;;;;;;2.50;0.90;;;22.80;99.90;;;;;;5014751;28;19905;-87
2021/09/30 11:59:31;;;;;;;5.50;0.90;;;22.80;99.90;;;;;;5014633;28;20397;-83
2021/09/30 12:02:02;;;;;;;2.58;0.68;;;23.00;99.90;;;;;;5014779;28;20037;-84
2021/09/30 12:04:36;;;;;;;4.20;0.90;;;23.00;99.90;;;;;;5014031;28;20069;-84
2021/09/30 12:07:03;;;;;;;1.33;0.60;;;22.90;99.90;;;;;;5014443;28;20072;-85
2021/09/30 12:09:33;;;;;;;0.60;0.50;;;23.00;99.90;;;;;;5015595;28;20041;-83
2021/09/30 12:12:05;;;;;;;5.25;0.80;;;22.80;99.90;;;;;;5014317;28;20056;-82
2021/09/30 12:14:51;;;;;;;1.08;0.70;;;22.80;99.90;;;;;;5014324;28;20037;-83
2021/09/30 12:17:19;;;;;;;2.83;0.75;;;22.80;99.90;;;;;;5014627;28;20109;-83
2021/09/30 12:19:50;;;;;;;1.77;0.60;;;22.70;99.90;;;;;;5013854;28;20048;-83
2021/09/30 12:22:17;;;;;;;0.95;0.80;;;22.70;99.90;;;;;;5014546;28;20030;-82
2021/09/30 12:24:50;;;;;;;10.57;1.35;;;22.70;99.90;;;;;;5013861;28;20512;-81
2021/09/30 12:27:18;;;;;;;3.45;0.90;;;22.70;99.90;;;;;;5013996;28;20104;-83
2021/09/30 12:29:53;;;;;;;1.30;0.60;;;22.60;99.90;;;;;;5014446;28;20041;-83
2021/09/30 12:32:27;;;;;;;5.45;1.33;;;22.50;99.90;;;;;;5013650;28;20041;-84
2021/09/30 12:35:06;;;;;;;1.17;0.60;;;22.40;99.90;;;;;;5014013;28;20026;-88
2021/09/30 12:37:35;;;;;;;5.40;0.93;;;22.30;99.90;;;;;;5014719;28;20045;-89
2021/09/30 12:40:14;;;;;;;3.50;0.90;;;22.30;99.90;;;;;;5014178;28;20026;-85
2021/09/30 12:43:05;;;;;;;1.58;0.77;;;22.20;99.90;;;;;;5014967;28;20048;-88
2021/09/30 12:45:34;;;;;;;5.30;0.82;;;22.20;99.90;;;;;;5014244;28;20057;-85
2021/09/30 12:48:08;;;;;;;2.45;0.95;;;22.20;99.90;;;;;;5014215;28;20026;-82
2021/09/30 12:50:49;;;;;;;2.92;0.70;;;22.20;99.90;;;;;;5014214;28;20056;-83
2021/09/30 12:53:18;;;;;;;1.95;0.73;;;22.20;99.90;;;;;;5014361;28;20061;-81
2021/09/30 12:55:45;;;;;;;6.22;0.80;;;22.20;99.90;;;;;;5013931;28;20034;-82
2021/09/30 12:58:40;;;;;;;2.25;0.90;;;22.20;99.90;;;;;;5014235;28;20511;-83
2021/09/30 13:01:30;;;;;;;2.85;0.95;;;22.20;99.90;;;;;;5013418;28;20033;-79
2021/09/30 13:04:24;;;;;;;2.95;1.00;;;22.10;99.90;;;;;;5013625;28;20371;-81
2021/09/30 13:06:59;;;;;;;1.27;0.80;;;22.10;99.90;;;;;;5013128;28;20040;-82
2021/09/30 13:09:31;;;;;;;2.30;0.88;;;22.10;99.90;;;;;;5013259;28;20395;-81
2021/09/30 13:11:59;;;;;;;2.22;0.88;;;22.10;99.90;;;;;;5013614;28;20117;-81
2021/09/30 13:14:36;;;;;;;2.40;0.80;;;22.10;99.90;;;;;;5013228;28;20089;-81
2021/09/30 13:17:20;;;;;;;0.80;0.70;;;22.10;99.90;;;;;;4995463;28;20038;-82
2021/09/30 13:20:08;;;;;;;1.02;0.88;;;22.10;99.90;;;;;;5013270;28;20030;-82
2021/09/30 13:22:42;;;;;;;1.00;0.80;;;22.10;99.90;;;;;;5013132;28;20034;-83
2021/09/30 13:25:15;;;;;;;1.10;0.70;;;22.00;99.90;;;;;;4995431;28;20034;-82
2021/09/30 13:27:42;;;;;;;2.70;1.20;;;21.90;99.90;;;;;;5013098;28;20074;-82
2021/09/30 13:30:13;;;;;;;1.80;0.85;;;21.90;99.90;;;;;;5013100;28;20400;-82
2021/09/30 13:32:41;;;;;;;11.10;1.50;;;21.80;99.90;;;;;;5013173;28;20369;-81
2021/09/30 13:35:08;;;;;;;0.80;0.63;;;21.70;99.90;;;;;;5012758;28;20062;-80
2021/09/30 13:37:34;;;;;;;1.00;0.70;;;21.80;99.90;;;;;;5012427;28;20022;-83
2021/09/30 13:40:01;;;;;;;2.08;0.82;;;21.80;99.90;;;;;;5012912;28;20484;-80
2021/09/30 13:42:29;;;;;;;3.42;0.77;;;21.80;99.90;;;;;;5012819;28;20088;-79
2021/09/30 13:44:56;;;;;;;1.23;0.77;;;21.80;99.90;;;;;;5012443;28;20132;-78
2021/09/30 13:47:24;;;;;;;1.60;0.82;;;21.80;99.90;;;;;;5012857;28;20042;-78
2021/09/30 13:49:49;;;;;;;4.50;1.05;;;21.70;99.90;;;;;;5013266;28;20089;-83
2021/09/30 13:52:15;;;;;;;5.95;1.13;;;21.70;99.90;;;;;;5012284;28;20459;-84
2021/09/30 13:54:41;;;;;;;1.80;0.82;;;21.70;99.90;;;;;;5013128;28;20034;-81
2021/09/30 13:57:10;;;;;;;8.65;1.00;;;21.60;99.90;;;;;;5013134;28;20113;-81
2021/09/30 13:59:36;;;;;;;3.80;1.27;;;21.60;99.90;;;;;;5012750;28;20108;-82
2021/09/30 14:02:03;;;;;;;11.10;0.88;;;21.60;99.90;;;;;;5014658;28;20049;-84
2021/09/30 14:04:29;;;;;;;1.70;0.80;;;21.60;99.90;;;;;;5013206;28;20042;-83
2021/09/30 14:06:56;;;;;;;2.65;1.02;;;21.60;99.90;;;;;;4995156;28;20483;-80
2021/09/30 14:09:25;;;;;;;5.60;1.35;;;21.50;99.90;;;;;;5012517;28;20513;-82
2021/09/30 14:11:52;;;;;;;2.63;1.15;;;21.40;99.90;;;;;;4994956;28;20033;-81
2021/09/30 14:14:19;;;;;;;1.60;1.13;;;21.40;99.90;;;;;;5013004;28;20026;-81
2021/09/30 14:16:48;;;;;;;1.23;1.00;;;21.30;99.90;;;;;;5012635;28;20034;-82
2021/09/30 14:19:17;;;;;;;1.20;1.05;;;21.30;99.90;;;;;;5013364;28;20141;-83
2021/09/30 14:21:43;;;;;;;2.22;1.00;;;21.40;99.90;;;;;;5012563;28;20022;-82
2021/09/30 14:24:09;;;;;;;4.88;1.00;;;21.30;99.90;;;;;;5012318;28;20050;-81
2021/09/30 14:26:35;;;;;;;0.82;0.75;;;21.30;99.90;;;;;;5013823;28;20114;-82
2021/09/30 14:29:02;;;;;;;2.03;1.10;;;21.40;99.90;;;;;;5016284;28;20034;-79
2021/09/30 14:31:28;;;;;;;1.40;0.90;;;21.40;99.90;;;;;;5016113;28;20034;-81
2021/09/30 14:33:54;;;;;;;5.80;1.13;;;21.30;99.90;;;;;;4998270;28;20040;-82
2021/09/30 14:36:20;;;;;;;1.70;1.02;;;21.20;99.90;;;;;;5016449;28;20112;-84
2021/09/30 14:38:46;;;;;;;6.93;0.90;;;21.20;99.90;;;;;;5015983;28;20472;-82
2021/09/30 14:41:12;;;;;;;1.30;0.75;;;21.20;99.90;;;;;;5015722;28;20038;-81
2021/09/30 14:43:38;;;;;;;1.25;0.70;;;21.20;99.90;;;;;;5015829;28;20041;-79
2021/09/30 14:46:05;;;;;;;1.00;0.70;;;21.10;99.90;;;;;;5015708;28;20050;-81
2021/09/30 14:48:33;;;;;;;1.45;0.73;;;21.10;99.90;;;;;;5015953;28;20092;-81
2021/09/30 14:50:59;;;;;;;1.13;1.02;;;21.20;99.90;;;;;;5015973;28;20026;-81
2021/09/30 14:53:25;;;;;;;3.22;0.80;;;21.20;99.90;;;;;;5015673;28;20044;-81
2021/09/30 14:55:51;;;;;;;2.10;0.98;;;21.20;99.90;;;;;;4998129;28;20125;-81
2021/09/30 14:58:17;;;;;;;1.60;0.82;;;21.20;99.90;;;;;;4998164;28;20494;-80
2021/09/30 15:00:43;;;;;;;1.05;0.77;;;21.20;99.90;;;;;;5015244;28;20038;-80
2021/09/30 15:03:09;;;;;;;2.17;1.05;;;21.30;99.90;;;;;;5015790;28;20045;-80
2021/09/30 15:05:35;;;;;;;3.70;0.95;;;21.30;99.90;;;;;;5015607;28;20053;-80
2021/09/30 15:08:02;;;;;;;0.73;0.73;;;21.30;99.90;;;;;;5007525;28;20037;-80
2021/09/30 15:10:29;;;;;;;2.35;1.00;;;21.20;99.90;;;;;;5015249;28;20022;-81
2021/09/30 15:12:55;;;;;;;2.28;0.90;;;21.10;99.90;;;;;;5015666;28;20049;-81
2021/09/30 15:15:21;;;;;;;1.02;0.93;;;21.10;99.90;;;;;;5015586;28;20025;-80
2021/09/30 15:23:04;;;;;;;3.67;1.20;;;21.00;99.90;;;;;;5015483;28;20103;-80
2021/09/30 15:25:30;;;;;;;1.38;1.00;;;20.90;99.90;;;;;;5015429;28;20030;-81
2021/09/30 15:27:57;;;;;;;5.35;1.17;;;20.80;99.90;;;;;;4997138;28;20041;-81
2021/09/30 15:30:24;;;;;;;3.03;1.33;;;20.80;99.90;;;;;;5015193;28;20034;-81
2021/09/30 15:32:51;;;;;;;2.70;1.00;;;20.70;99.90;;;;;;5015331;28;20168;-81
2021/09/30 15:35:17;;;;;;;2.45;1.00;;;20.70;99.90;;;;;;5015005;28;20034;-81
2021/09/30 15:37:43;;;;;;;6.65;1.40;;;20.70;99.90;;;;;;5014283;28;20026;-81
2021/09/30 15:40:09;;;;;;;2.78;1.27;;;20.70;99.90;;;;;;5015003;28;20496;-80
2021/09/30 15:42:35;;;;;;;3.22;1.42;;;20.60;99.90;;;;;;5014586;28;20092;-80
2021/09/30 15:45:01;;;;;;;1.10;0.95;;;20.60;99.90;;;;;;5014957;28;20448;-80
2021/09/30 15:47:28;;;;;;;4.55;0.90;;;20.50;99.90;;;;;;5014870;28;20495;-80
2021/09/30 15:49:54;;;;;;;1.80;0.90;;;20.50;99.90;;;;;;5014740;28;20109;-80
2021/09/30 15:52:20;;;;;;;0.77;0.77;;;20.50;99.90;;;;;;5014679;28;20121;-78
2021/09/30 15:54:46;;;;;;;2.40;0.95;;;20.40;99.90;;;;;;5014617;28;20025;-78
2021/09/30 15:57:13;;;;;;;3.75;1.55;;;20.30;99.90;;;;;;5014921;28;20129;-80